Elizabeth Mc Allister — WDB7652 — position and weather

sailwx.info

Track history (hours):
 
Tides and Currents Weather Stations Pressure Air Temp Water Temp Dewpoint Dewpoint Depression Visibility Wind Speed Wind Dir Waves Ship Positions

Elizabeth Mc Allister

Owner: MC ALLISTER TOWING & TRANSPORTATION INC, NEW YORK, NY. More information available from US FCC via Universal Licensing System and Coast Guard Vessel Documentation Center.

Last reported at 2016-Jun-26 11:33 UTC. Time now 2016-Jun-26 11:55 UTC.
Position N 40°27' W 074°03'.

Length 31 m.

Type: Tug. MMSI: 362751376.

Date/timePositionNaut miles runAvg speedWind from/ knotsBaromVisibWave heightAir tempDewpointWater temp
2016-Jun-26 11:33N 40°27' W 074°03'0 0.0
2016-Jun-26 10:31N 40°27' W 074°03'0 0.0
2016-Jun-26 09:33N 40°27' W 074°03'0 0.0
2016-Jun-26 08:30N 40°27' W 074°03'0 0.0
2016-Jun-26 07:33N 40°27' W 074°03'0 0.0
2016-Jun-26 05:21N 40°27' W 074°03'0 0.0
2016-Jun-26 04:17N 40°27' W 074°03'0 0.0
2016-Jun-26 03:33N 40°27' W 074°03'0 0.0
2016-Jun-25 21:31N 40°27' W 074°03'0 0.0
2016-Jun-25 17:26N 40°27' W 074°03'0 0.0
2016-Jun-25 16:33N 40°27' W 074°03'0 0.0
2016-Jun-25 08:07N 40°27' W 074°03'0 0.0
2016-Jun-24 17:20N 40°27' W 074°03'0 0.1
2016-Jun-24 16:33N 40°27' W 074°03'2 2.0
2016-Jun-24 15:33N 40°29' W 074°01'1 1.1
2016-Jun-24 14:17N 40°28' W 074°03'5 6.7
2016-Jun-24 13:33N 40°33' W 074°02'7 7.3
2016-Jun-24 12:33N 40°39' W 074°08'1 1.5
2016-Jun-24 11:33N 40°38' W 074°10'0 0.0
2016-Jun-24 10:33N 40°38' W 074°10'  
2016-Jun-16 23:29N 40°38' W 074°10'2 1.8
2016-Jun-16 22:28N 40°38' W 074°12'2 2.6
2016-Jun-16 21:33N 40°39' W 074°09'4 4.3
2016-Jun-16 20:33N 40°38' W 074°04'5 4.8
2016-Jun-16 19:33N 40°38' W 074°10'0 0.0
2016-Jun-16 18:33N 40°38' W 074°10'0 0.0
2016-Jun-16 17:33N 40°38' W 074°10'0 0.0
2016-Jun-16 16:22N 40°38' W 074°10'0 0.0
2016-Jun-16 15:26N 40°38' W 074°10'1 0.7
2016-Jun-16 14:33N 40°39' W 074°09'3 3.0
2016-Jun-16 13:33N 40°42' W 074°08'3 3.3
2016-Jun-16 12:33N 40°38' W 074°10'  
Track history (hours):
 
Tides and Currents Weather Stations Pressure Air Temp Water Temp Dewpoint Dewpoint Depression Visibility Wind Speed Wind Dir Waves Ship Positions

Elizabeth Mc Allister

Owner: MC ALLISTER TOWING & TRANSPORTATION INC, NEW YORK, NY. More information available from US FCC via Universal Licensing System and Coast Guard Vessel Documentation Center.

Last reported at 2016-Jun-26 11:33 UTC. Time now 2016-Jun-26 11:55 UTC.
Position N 40°27' W 074°03'.

Length 31 m.

Type: Tug. MMSI: 362751376.

Date/timePositionNaut miles runAvg speedWind from/ knotsBaromVisibWave heightAir tempDewpointWater temp
2016-Jun-26 11:33N 40°27' W 074°03'0 0.0
2016-Jun-26 10:31N 40°27' W 074°03'0 0.0
2016-Jun-26 09:33N 40°27' W 074°03'0 0.0
2016-Jun-26 08:30N 40°27' W 074°03'0 0.0
2016-Jun-26 07:33N 40°27' W 074°03'0 0.0
2016-Jun-26 05:21N 40°27' W 074°03'0 0.0
2016-Jun-26 04:17N 40°27' W 074°03'0 0.0
2016-Jun-26 03:33N 40°27' W 074°03'0 0.0
2016-Jun-25 21:31N 40°27' W 074°03'0 0.0
2016-Jun-25 17:26N 40°27' W 074°03'0 0.0
2016-Jun-25 16:33N 40°27' W 074°03'0 0.0
2016-Jun-25 08:07N 40°27' W 074°03'0 0.0
2016-Jun-24 17:20N 40°27' W 074°03'0 0.1
2016-Jun-24 16:33N 40°27' W 074°03'2 2.0
2016-Jun-24 15:33N 40°29' W 074°01'1 1.1
2016-Jun-24 14:17N 40°28' W 074°03'5 6.7
2016-Jun-24 13:33N 40°33' W 074°02'7 7.3
2016-Jun-24 12:33N 40°39' W 074°08'1 1.5
2016-Jun-24 11:33N 40°38' W 074°10'0 0.0
2016-Jun-24 10:33N 40°38' W 074°10'  
2016-Jun-16 23:29N 40°38' W 074°10'2 1.8
2016-Jun-16 22:28N 40°38' W 074°12'2 2.6
2016-Jun-16 21:33N 40°39' W 074°09'4 4.3
2016-Jun-16 20:33N 40°38' W 074°04'5 4.8
2016-Jun-16 19:33N 40°38' W 074°10'0 0.0
2016-Jun-16 18:33N 40°38' W 074°10'0 0.0
2016-Jun-16 17:33N 40°38' W 074°10'0 0.0
2016-Jun-16 16:22N 40°38' W 074°10'0 0.0
2016-Jun-16 15:26N 40°38' W 074°10'1 0.7
2016-Jun-16 14:33N 40°39' W 074°09'3 3.0
2016-Jun-16 13:33N 40°42' W 074°08'3 3.3
2016-Jun-16 12:33N 40°38' W 074°10'  

Dump ship's entire track history